sensor_id;sensor_type;location;lat;lon;timestamp;temperature;humidity
36586;DHT22;22591;48.314;11.562;2024-02-04T00:01:21;6.10;99.90
36586;DHT22;22591;48.314;11.562;2024-02-04T00:03:46;6.10;99.90
36586;DHT22;22591;48.314;11.562;2024-02-04T00:06:12;6.10;99.90
36586;DHT22;22591;48.314;11.562;2024-02-04T00:08:37;6.10;99.90
36586;DHT22;22591;48.314;11.562;2024-02-04T00:11:03;6.10;99.90
36586;DHT22;22591;48.314;11.562;2024-02-04T00:13:33;6.10;99.90
36586;DHT22;22591;48.314;11.562;2024-02-04T00:15:59;6.10;99.90
36586;DHT22;22591;48.314;11.562;2024-02-04T00:18:25;6.10;99.90
36586;DHT22;22591;48.314;11.562;2024-02-04T00:20:51;6.10;99.90
36586;DHT22;22591;48.314;11.562;2024-02-04T00:23:16;6.10;99.90
36586;DHT22;22591;48.314;11.562;2024-02-04T00:25:42;6.10;99.90
36586;DHT22;22591;48.314;11.562;2024-02-04T00:28:08;6.10;99.90
36586;DHT22;22591;48.314;11.562;2024-02-04T00:30:37;6.10;99.90
36586;DHT22;22591;48.314;11.562;2024-02-04T00:33:03;6.10;99.90
36586;DHT22;22591;48.314;11.562;2024-02-04T00:35:29;6.10;99.90
36586;DHT22;22591;48.314;11.562;2024-02-04T00:37:55;6.00;99.90
36586;DHT22;22591;48.314;11.562;2024-02-04T00:40:21;6.00;99.90
36586;DHT22;22591;48.314;11.562;2024-02-04T00:42:49;6.00;99.90
36586;DHT22;22591;48.314;11.562;2024-02-04T00:45:15;6.00;99.90
36586;DHT22;22591;48.314;11.562;2024-02-04T00:47:41;6.00;99.90
36586;DHT22;22591;48.314;11.562;2024-02-04T00:50:07;6.00;99.90
36586;DHT22;22591;48.314;11.562;2024-02-04T00:52:33;5.90;99.90
36586;DHT22;22591;48.314;11.562;2024-02-04T00:54:58;5.90;99.90
36586;DHT22;22591;48.314;11.562;2024-02-04T00:57:24;5.90;99.90
36586;DHT22;22591;48.314;11.562;2024-02-04T00:59:50;5.80;99.90
36586;DHT22;22591;48.314;11.562;2024-02-04T01:02:16;5.80;99.90
36586;DHT22;22591;48.314;11.562;2024-02-04T01:04:41;5.80;99.90
36586;DHT22;22591;48.314;11.562;2024-02-04T01:07:07;5.80;99.90
36586;DHT22;22591;48.314;11.562;2024-02-04T01:09:32;5.70;99.90
36586;DHT22;22591;48.314;11.562;2024-02-04T01:11:58;5.70;99.90
36586;DHT22;22591;48.314;11.562;2024-02-04T01:14:26;5.70;99.90
36586;DHT22;22591;48.314;11.562;2024-02-04T01:16:51;5.70;99.90
36586;DHT22;22591;48.314;11.562;2024-02-04T01:19:17;5.80;99.90
36586;DHT22;22591;48.314;11.562;2024-02-04T01:21:42;5.70;99.90
36586;DHT22;22591;48.314;11.562;2024-02-04T01:24:10;5.70;99.90
36586;DHT22;22591;48.314;11.562;2024-02-04T01:26:35;5.80;99.90
36586;DHT22;22591;48.314;11.562;2024-02-04T01:29:01;5.80;99.90
36586;DHT22;22591;48.314;11.562;2024-02-04T01:31:27;5.80;99.90
36586;DHT22;22591;48.314;11.562;2024-02-04T01:33:52;5.70;99.90
36586;DHT22;22591;48.314;11.562;2024-02-04T01:36:18;5.80;99.90
36586;DHT22;22591;48.314;11.562;2024-02-04T01:38:43;5.70;99.90
36586;DHT22;22591;48.314;11.562;2024-02-04T01:41:09;5.70;99.90
36586;DHT22;22591;48.314;11.562;2024-02-04T01:43:34;5.70;99.90
36586;DHT22;22591;48.314;11.562;2024-02-04T01:46:01;5.70;99.90
36586;DHT22;22591;48.314;11.562;2024-02-04T01:48:29;5.70;99.90
36586;DHT22;22591;48.314;11.562;2024-02-04T01:50:58;5.70;99.90
36586;DHT22;22591;48.314;11.562;2024-02-04T01:53:26;5.70;99.90
36586;DHT22;22591;48.314;11.562;2024-02-04T01:55:52;5.70;99.90
36586;DHT22;22591;48.314;11.562;2024-02-04T01:58:22;5.80;99.90
36586;DHT22;22591;48.314;11.562;2024-02-04T02:00:48;5.80;99.90
36586;DHT22;22591;48.314;11.562;2024-02-04T02:03:16;5.80;99.90
36586;DHT22;22591;48.314;11.562;2024-02-04T02:05:42;5.80;99.90
36586;DHT22;22591;48.314;11.562;2024-02-04T02:08:08;5.70;99.90
36586;DHT22;22591;48.314;11.562;2024-02-04T02:10:34;5.70;99.90
36586;DHT22;22591;48.314;11.562;2024-02-04T02:15:37;5.70;99.90
36586;DHT22;22591;48.314;11.562;2024-02-04T02:18:19;5.70;99.90
36586;DHT22;22591;48.314;11.562;2024-02-04T02:24:28;5.70;99.90
36586;DHT22;22591;48.314;11.562;2024-02-04T02:26:35;5.70;99.90
36586;DHT22;22591;48.314;11.562;2024-02-04T02:29:04;5.80;99.90
36586;DHT22;22591;48.314;11.562;2024-02-04T02:31:33;5.70;99.90
36586;DHT22;22591;48.314;11.562;2024-02-04T02:33:59;5.70;99.90
36586;DHT22;22591;48.314;11.562;2024-02-04T02:36:25;5.70;99.90
36586;DHT22;22591;48.314;11.562;2024-02-04T02:39:15;5.70;99.90
36586;DHT22;22591;48.314;11.562;2024-02-04T02:41:43;5.60;99.90
36586;DHT22;22591;48.314;11.562;2024-02-04T02:44:09;5.70;99.90
36586;DHT22;22591;48.314;11.562;2024-02-04T02:46:40;5.70;99.90
36586;DHT22;22591;48.314;11.562;2024-02-04T02:49:06;5.70;99.90
36586;DHT22;22591;48.314;11.562;2024-02-04T02:51:32;5.70;99.90
36586;DHT22;22591;48.314;11.562;2024-02-04T02:53:57;5.80;99.90
36586;DHT22;22591;48.314;11.562;2024-02-04T02:56:23;5.70;99.90
36586;DHT22;22591;48.314;11.562;2024-02-04T02:58:48;5.50;99.90
36586;DHT22;22591;48.314;11.562;2024-02-04T03:01:14;5.70;99.90
36586;DHT22;22591;48.314;11.562;2024-02-04T03:03:39;5.60;99.90
36586;DHT22;22591;48.314;11.562;2024-02-04T03:06:05;5.60;99.90
36586;DHT22;22591;48.314;11.562;2024-02-04T03:08:31;5.60;99.90
36586;DHT22;22591;48.314;11.562;2024-02-04T03:10:56;5.60;99.90
36586;DHT22;22591;48.314;11.562;2024-02-04T03:13:22;5.60;99.90
36586;DHT22;22591;48.314;11.562;2024-02-04T03:15:47;5.60;99.90
36586;DHT22;22591;48.314;11.562;2024-02-04T03:18:13;5.60;99.90
36586;DHT22;22591;48.314;11.562;2024-02-04T03:20:39;5.60;99.90
36586;DHT22;22591;48.314;11.562;2024-02-04T03:23:04;5.60;99.90
36586;DHT22;22591;48.314;11.562;2024-02-04T03:25:30;5.60;99.90
36586;DHT22;22591;48.314;11.562;2024-02-04T03:27:58;5.60;99.90
36586;DHT22;22591;48.314;11.562;2024-02-04T03:30:27;5.60;99.90
36586;DHT22;22591;48.314;11.562;2024-02-04T03:32:53;5.60;99.90
36586;DHT22;22591;48.314;11.562;2024-02-04T03:35:19;5.60;99.90
36586;DHT22;22591;48.314;11.562;2024-02-04T03:37:44;5.60;99.90
36586;DHT22;22591;48.314;11.562;2024-02-04T03:40:10;5.60;99.90
36586;DHT22;22591;48.314;11.562;2024-02-04T03:42:36;5.60;99.90
36586;DHT22;22591;48.314;11.562;2024-02-04T03:45:02;5.50;99.90
36586;DHT22;22591;48.314;11.562;2024-02-04T03:47:28;5.60;99.90
36586;DHT22;22591;48.314;11.562;2024-02-04T03:49:54;5.60;99.90
36586;DHT22;22591;48.314;11.562;2024-02-04T03:52:19;5.50;99.90
36586;DHT22;22591;48.314;11.562;2024-02-04T03:54:45;5.50;99.90
36586;DHT22;22591;48.314;11.562;2024-02-04T03:57:10;5.60;99.90
36586;DHT22;22591;48.314;11.562;2024-02-04T03:59:36;5.60;99.90
36586;DHT22;22591;48.314;11.562;2024-02-04T04:02:02;5.60;99.90
36586;DHT22;22591;48.314;11.562;2024-02-04T04:04:30;5.60;99.90
36586;DHT22;22591;48.314;11.562;2024-02-04T04:06:56;5.60;99.90
36586;DHT22;22591;48.314;11.562;2024-02-04T04:09:27;5.50;99.90
36586;DHT22;22591;48.314;11.562;2024-02-04T04:11:55;5.50;99.90
36586;DHT22;22591;48.314;11.562;2024-02-04T04:14:21;5.60;99.90
36586;DHT22;22591;48.314;11.562;2024-02-04T04:16:46;5.60;99.90
36586;DHT22;22591;48.314;11.562;2024-02-04T04:19:12;5.60;99.90
36586;DHT22;22591;48.314;11.562;2024-02-04T04:21:38;5.60;99.90
36586;DHT22;22591;48.314;11.562;2024-02-04T04:24:04;5.70;99.90
36586;DHT22;22591;48.314;11.562;2024-02-04T04:26:29;5.70;99.90
36586;DHT22;22591;48.314;11.562;2024-02-04T04:28:55;5.60;99.90
36586;DHT22;22591;48.314;11.562;2024-02-04T04:31:20;5.60;99.90
36586;DHT22;22591;48.314;11.562;2024-02-04T04:33:46;5.60;99.90
36586;DHT22;22591;48.314;11.562;2024-02-04T04:36:11;5.60;99.90
36586;DHT22;22591;48.314;11.562;2024-02-04T04:38:39;5.60;99.90
36586;DHT22;22591;48.314;11.562;2024-02-04T04:41:05;5.70;99.90
36586;DHT22;22591;48.314;11.562;2024-02-04T04:43:30;5.60;99.90
36586;DHT22;22591;48.314;11.562;2024-02-04T04:45:56;5.60;99.90
36586;DHT22;22591;48.314;11.562;2024-02-04T04:48:21;5.70;99.90
36586;DHT22;22591;48.314;11.562;2024-02-04T04:50:47;5.70;99.90
36586;DHT22;22591;48.314;11.562;2024-02-04T04:53:15;5.60;99.90
36586;DHT22;22591;48.314;11.562;2024-02-04T04:55:40;5.60;99.90
36586;DHT22;22591;48.314;11.562;2024-02-04T04:58:06;5.60;99.90
36586;DHT22;22591;48.314;11.562;2024-02-04T05:00:31;5.60;99.90
36586;DHT22;22591;48.314;11.562;2024-02-04T05:02:57;5.60;99.90
36586;DHT22;22591;48.314;11.562;2024-02-04T05:05:25;5.70;99.90
36586;DHT22;22591;48.314;11.562;2024-02-04T05:07:50;5.70;99.90
36586;DHT22;22591;48.314;11.562;2024-02-04T05:10:16;5.70;99.90
36586;DHT22;22591;48.314;11.562;2024-02-04T05:12:41;5.70;99.90
36586;DHT22;22591;48.314;11.562;2024-02-04T05:15:07;5.70;99.90
36586;DHT22;22591;48.314;11.562;2024-02-04T05:17:40;5.70;99.90
36586;DHT22;22591;48.314;11.562;2024-02-04T05:20:06;5.60;99.90
36586;DHT22;22591;48.314;11.562;2024-02-04T05:22:33;5.60;99.90
36586;DHT22;22591;48.314;11.562;2024-02-04T05:24:58;5.60;99.90
36586;DHT22;22591;48.314;11.562;2024-02-04T05:27:24;5.60;99.90
36586;DHT22;22591;48.314;11.562;2024-02-04T05:29:49;5.50;99.90
36586;DHT22;22591;48.314;11.562;2024-02-04T05:32:15;5.50;99.90
36586;DHT22;22591;48.314;11.562;2024-02-04T05:34:40;5.50;99.90
36586;DHT22;22591;48.314;11.562;2024-02-04T05:37:06;5.50;99.90
36586;DHT22;22591;48.314;11.562;2024-02-04T05:39:32;5.40;99.90
36586;DHT22;22591;48.314;11.562;2024-02-04T05:41:57;5.50;99.90
36586;DHT22;22591;48.314;11.562;2024-02-04T05:44:23;5.40;99.90
36586;DHT22;22591;48.314;11.562;2024-02-04T05:46:48;5.40;99.90
36586;DHT22;22591;48.314;11.562;2024-02-04T05:49:14;5.50;99.90
36586;DHT22;22591;48.314;11.562;2024-02-04T05:51:40;5.50;99.90
36586;DHT22;22591;48.314;11.562;2024-02-04T05:54:06;5.50;99.90
36586;DHT22;22591;48.314;11.562;2024-02-04T05:56:32;5.50;99.90
36586;DHT22;22591;48.314;11.562;2024-02-04T05:58:58;5.50;99.90
36586;DHT22;22591;48.314;11.562;2024-02-04T06:01:23;5.50;99.90
36586;DHT22;22591;48.314;11.562;2024-02-04T06:03:49;5.50;99.90
36586;DHT22;22591;48.314;11.562;2024-02-04T06:06:18;5.50;99.90
36586;DHT22;22591;48.314;11.562;2024-02-04T06:08:46;5.50;99.90
36586;DHT22;22591;48.314;11.562;2024-02-04T06:11:13;5.50;99.90
36586;DHT22;22591;48.314;11.562;2024-02-04T06:13:40;5.50;99.90
36586;DHT22;22591;48.314;11.562;2024-02-04T06:16:06;5.50;99.90
36586;DHT22;22591;48.314;11.562;2024-02-04T06:18:32;5.50;99.90
36586;DHT22;22591;48.314;11.562;2024-02-04T06:20:57;5.50;99.90
36586;DHT22;22591;48.314;11.562;2024-02-04T06:23:23;5.50;99.90
36586;DHT22;22591;48.314;11.562;2024-02-04T06:25:49;5.50;99.90
36586;DHT22;22591;48.314;11.562;2024-02-04T06:28:14;5.50;99.90
36586;DHT22;22591;48.314;11.562;2024-02-04T06:30:40;5.50;99.90
36586;DHT22;22591;48.314;11.562;2024-02-04T06:33:05;5.60;99.90
36586;DHT22;22591;48.314;11.562;2024-02-04T06:35:32;5.60;99.90
36586;DHT22;22591;48.314;11.562;2024-02-04T06:37:58;5.60;99.90
36586;DHT22;22591;48.314;11.562;2024-02-04T06:40:23;5.60;99.90
36586;DHT22;22591;48.314;11.562;2024-02-04T06:42:49;5.60;99.90
36586;DHT22;22591;48.314;11.562;2024-02-04T06:45:14;5.60;99.90
36586;DHT22;22591;48.314;11.562;2024-02-04T06:47:43;5.60;99.90
36586;DHT22;22591;48.314;11.562;2024-02-04T06:50:09;5.60;99.90
36586;DHT22;22591;48.314;11.562;2024-02-04T06:52:39;5.60;99.90
36586;DHT22;22591;48.314;11.562;2024-02-04T06:55:05;5.60;99.90
36586;DHT22;22591;48.314;11.562;2024-02-04T06:57:31;5.60;99.90
36586;DHT22;22591;48.314;11.562;2024-02-04T06:59:56;5.60;99.90
36586;DHT22;22591;48.314;11.562;2024-02-04T07:02:22;5.60;99.90
36586;DHT22;22591;48.314;11.562;2024-02-04T07:04:50;5.60;99.90
36586;DHT22;22591;48.314;11.562;2024-02-04T07:07:16;5.70;99.90
36586;DHT22;22591;48.314;11.562;2024-02-04T07:09:41;5.70;99.90
36586;DHT22;22591;48.314;11.562;2024-02-04T07:12:07;5.70;99.90
36586;DHT22;22591;48.314;11.562;2024-02-04T07:14:32;5.70;99.90
36586;DHT22;22591;48.314;11.562;2024-02-04T07:16:58;5.80;99.90
36586;DHT22;22591;48.314;11.562;2024-02-04T07:19:23;5.70;99.90
36586;DHT22;22591;48.314;11.562;2024-02-04T07:21:49;5.70;99.90
36586;DHT22;22591;48.314;11.562;2024-02-04T07:24:14;5.80;99.90
36586;DHT22;22591;48.314;11.562;2024-02-04T07:26:42;5.80;99.90
36586;DHT22;22591;48.314;11.562;2024-02-04T07:29:08;5.80;99.90
36586;DHT22;22591;48.314;11.562;2024-02-04T07:31:34;5.80;99.90
36586;DHT22;22591;48.314;11.562;2024-02-04T07:34:03;5.80;99.90
36586;DHT22;22591;48.314;11.562;2024-02-04T07:36:28;5.80;99.90
36586;DHT22;22591;48.314;11.562;2024-02-04T07:38:54;5.80;99.90
36586;DHT22;22591;48.314;11.562;2024-02-04T07:41:27;5.80;99.90
36586;DHT22;22591;48.314;11.562;2024-02-04T07:43:53;5.90;99.90
36586;DHT22;22591;48.314;11.562;2024-02-04T07:46:18;5.90;99.90
36586;DHT22;22591;48.314;11.562;2024-02-04T07:48:44;5.90;99.90
36586;DHT22;22591;48.314;11.562;2024-02-04T07:51:09;5.90;99.90
36586;DHT22;22591;48.314;11.562;2024-02-04T07:53:35;6.00;99.90
36586;DHT22;22591;48.314;11.562;2024-02-04T07:56:04;6.00;99.90
36586;DHT22;22591;48.314;11.562;2024-02-04T07:58:32;6.00;99.90
36586;DHT22;22591;48.314;11.562;2024-02-04T08:00:58;6.00;99.90
36586;DHT22;22591;48.314;11.562;2024-02-04T08:03:23;6.00;99.90
36586;DHT22;22591;48.314;11.562;2024-02-04T08:05:49;6.00;99.90
36586;DHT22;22591;48.314;11.562;2024-02-04T08:08:14;6.00;99.90
36586;DHT22;22591;48.314;11.562;2024-02-04T08:10:40;5.90;99.90
36586;DHT22;22591;48.314;11.562;2024-02-04T08:13:05;6.00;99.90
36586;DHT22;22591;48.314;11.562;2024-02-04T08:15:32;5.90;99.90
36586;DHT22;22591;48.314;11.562;2024-02-04T08:17:58;5.90;99.90
36586;DHT22;22591;48.314;11.562;2024-02-04T08:20:25;5.90;99.90
36586;DHT22;22591;48.314;11.562;2024-02-04T08:22:52;6.00;99.90
36586;DHT22;22591;48.314;11.562;2024-02-04T08:25:18;5.90;99.90
36586;DHT22;22591;48.314;11.562;2024-02-04T08:27:45;5.90;99.90
36586;DHT22;22591;48.314;11.562;2024-02-04T08:30:10;6.00;99.90
36586;DHT22;22591;48.314;11.562;2024-02-04T08:32:37;6.00;99.90
36586;DHT22;22591;48.314;11.562;2024-02-04T08:35:03;6.00;99.90
36586;DHT22;22591;48.314;11.562;2024-02-04T08:37:29;6.00;99.90
36586;DHT22;22591;48.314;11.562;2024-02-04T08:39:55;6.00;99.90
36586;DHT22;22591;48.314;11.562;2024-02-04T08:42:20;6.10;99.90
36586;DHT22;22591;48.314;11.562;2024-02-04T08:44:46;6.10;99.90
36586;DHT22;22591;48.314;11.562;2024-02-04T08:47:12;6.10;99.90
36586;DHT22;22591;48.314;11.562;2024-02-04T08:49:39;6.20;99.90
36586;DHT22;22591;48.314;11.562;2024-02-04T08:52:05;6.30;99.90
36586;DHT22;22591;48.314;11.562;2024-02-04T08:54:31;6.40;99.90
36586;DHT22;22591;48.314;11.562;2024-02-04T08:56:56;6.40;99.90
36586;DHT22;22591;48.314;11.562;2024-02-04T08:59:22;6.50;99.90
36586;DHT22;22591;48.314;11.562;2024-02-04T09:01:50;6.50;99.90
36586;DHT22;22591;48.314;11.562;2024-02-04T09:04:15;6.60;99.90
36586;DHT22;22591;48.314;11.562;2024-02-04T09:06:41;6.80;99.90
36586;DHT22;22591;48.314;11.562;2024-02-04T09:09:07;6.80;99.90
36586;DHT22;22591;48.314;11.562;2024-02-04T09:11:34;6.80;99.90
36586;DHT22;22591;48.314;11.562;2024-02-04T09:14:00;6.90;99.90
36586;DHT22;22591;48.314;11.562;2024-02-04T09:16:25;6.90;99.90
36586;DHT22;22591;48.314;11.562;2024-02-04T09:18:51;7.00;99.90
36586;DHT22;22591;48.314;11.562;2024-02-04T09:21:16;7.00;99.90
36586;DHT22;22591;48.314;11.562;2024-02-04T09:23:42;7.00;99.90
36586;DHT22;22591;48.314;11.562;2024-02-04T09:26:07;7.10;99.90
36586;DHT22;22591;48.314;11.562;2024-02-04T09:28:33;7.10;99.90
36586;DHT22;22591;48.314;11.562;2024-02-04T09:30:58;7.10;99.90
36586;DHT22;22591;48.314;11.562;2024-02-04T09:33:24;7.10;99.90
36586;DHT22;22591;48.314;11.562;2024-02-04T09:35:50;7.10;99.90
36586;DHT22;22591;48.314;11.562;2024-02-04T09:38:15;7.10;99.90
36586;DHT22;22591;48.314;11.562;2024-02-04T09:40:41;7.10;99.90
36586;DHT22;22591;48.314;11.562;2024-02-04T09:43:07;7.10;99.90
36586;DHT22;22591;48.314;11.562;2024-02-04T09:45:34;7.10;99.90
36586;DHT22;22591;48.314;11.562;2024-02-04T09:48:03;7.20;99.90
36586;DHT22;22591;48.314;11.562;2024-02-04T09:50:29;7.20;99.90
36586;DHT22;22591;48.314;11.562;2024-02-04T09:53:07;7.20;99.90
36586;DHT22;22591;48.314;11.562;2024-02-04T09:55:33;7.20;99.90
36586;DHT22;22591;48.314;11.562;2024-02-04T09:58:00;7.20;99.90
36586;DHT22;22591;48.314;11.562;2024-02-04T10:00:27;7.30;99.90
36586;DHT22;22591;48.314;11.562;2024-02-04T10:02:55;7.30;99.90
36586;DHT22;22591;48.314;11.562;2024-02-04T10:05:21;7.20;99.90
36586;DHT22;22591;48.314;11.562;2024-02-04T10:07:47;7.20;99.90
36586;DHT22;22591;48.314;11.562;2024-02-04T10:10:12;7.30;99.90
36586;DHT22;22591;48.314;11.562;2024-02-04T10:12:38;7.30;99.90
36586;DHT22;22591;48.314;11.562;2024-02-04T10:15:07;7.30;99.90
36586;DHT22;22591;48.314;11.562;2024-02-04T10:17:32;7.40;99.90
36586;DHT22;22591;48.314;11.562;2024-02-04T10:19:58;7.40;99.90
36586;DHT22;22591;48.314;11.562;2024-02-04T10:22:26;7.40;99.90
36586;DHT22;22591;48.314;11.562;2024-02-04T10:24:52;7.30;99.90
36586;DHT22;22591;48.314;11.562;2024-02-04T10:27:17;7.40;99.90
36586;DHT22;22591;48.314;11.562;2024-02-04T10:29:43;7.40;99.90
36586;DHT22;22591;48.314;11.562;2024-02-04T10:32:09;7.40;99.90
36586;DHT22;22591;48.314;11.562;2024-02-04T10:34:38;7.50;99.90
36586;DHT22;22591;48.314;11.562;2024-02-04T10:37:04;7.50;99.90
36586;DHT22;22591;48.314;11.562;2024-02-04T10:39:29;7.50;99.90
36586;DHT22;22591;48.314;11.562;2024-02-04T10:41:56;7.40;99.90
36586;DHT22;22591;48.314;11.562;2024-02-04T10:44:28;7.40;99.90
36586;DHT22;22591;48.314;11.562;2024-02-04T10:46:57;7.50;99.90
36586;DHT22;22591;48.314;11.562;2024-02-04T10:49:26;7.50;99.90
36586;DHT22;22591;48.314;11.562;2024-02-04T10:51:56;7.40;99.90
36586;DHT22;22591;48.314;11.562;2024-02-04T10:54:25;7.30;99.90
36586;DHT22;22591;48.314;11.562;2024-02-04T10:56:58;7.50;99.90
36586;DHT22;22591;48.314;11.562;2024-02-04T10:59:27;7.50;99.90
36586;DHT22;22591;48.314;11.562;2024-02-04T11:01:55;7.50;99.90
36586;DHT22;22591;48.314;11.562;2024-02-04T11:04:22;7.50;99.90
36586;DHT22;22591;48.314;11.562;2024-02-04T11:06:49;7.60;99.90
36586;DHT22;22591;48.314;11.562;2024-02-04T11:09:16;7.70;99.90
36586;DHT22;22591;48.314;11.562;2024-02-04T11:11:43;7.80;99.90
36586;DHT22;22591;48.314;11.562;2024-02-04T11:14:12;7.70;99.90
36586;DHT22;22591;48.314;11.562;2024-02-04T11:27:25;7.90;99.90
36586;DHT22;22591;48.314;11.562;2024-02-04T11:29:50;8.00;99.90
36586;DHT22;22591;48.314;11.562;2024-02-04T11:32:17;7.90;99.90
36586;DHT22;22591;48.314;11.562;2024-02-04T11:34:46;7.80;99.90
36586;DHT22;22591;48.314;11.562;2024-02-04T11:37:16;8.00;99.90
36586;DHT22;22591;48.314;11.562;2024-02-04T11:39:53;8.10;99.90
36586;DHT22;22591;48.314;11.562;2024-02-04T11:42:23;8.20;99.90
36586;DHT22;22591;48.314;11.562;2024-02-04T11:44:48;8.30;99.90
36586;DHT22;22591;48.314;11.562;2024-02-04T11:47:24;8.30;99.90
36586;DHT22;22591;48.314;11.562;2024-02-04T11:49:58;8.20;99.90
36586;DHT22;22591;48.314;11.562;2024-02-04T11:52:27;8.20;99.90
36586;DHT22;22591;48.314;11.562;2024-02-04T11:54:53;8.20;99.90
36586;DHT22;22591;48.314;11.562;2024-02-04T11:57:19;8.30;99.90
36586;DHT22;22591;48.314;11.562;2024-02-04T11:59:46;8.30;99.90
36586;DHT22;22591;48.314;11.562;2024-02-04T12:02:15;8.40;99.90
36586;DHT22;22591;48.314;11.562;2024-02-04T12:04:41;8.30;99.90
36586;DHT22;22591;48.314;11.562;2024-02-04T12:07:08;8.30;99.90
36586;DHT22;22591;48.314;11.562;2024-02-04T12:09:34;8.40;99.90
36586;DHT22;22591;48.314;11.562;2024-02-04T12:12:01;8.40;99.90
36586;DHT22;22591;48.314;11.562;2024-02-04T12:14:27;8.40;99.90
36586;DHT22;22591;48.314;11.562;2024-02-04T12:17:05;8.40;99.90
36586;DHT22;22591;48.314;11.562;2024-02-04T12:19:31;8.40;99.90
36586;DHT22;22591;48.314;11.562;2024-02-04T12:21:57;8.50;99.90
36586;DHT22;22591;48.314;11.562;2024-02-04T12:24:23;8.50;99.90
36586;DHT22;22591;48.314;11.562;2024-02-04T12:26:48;8.60;99.90
36586;DHT22;22591;48.314;11.562;2024-02-04T12:29:14;8.80;99.90
36586;DHT22;22591;48.314;11.562;2024-02-04T12:31:40;8.70;99.90
36586;DHT22;22591;48.314;11.562;2024-02-04T12:34:07;8.70;99.90
36586;DHT22;22591;48.314;11.562;2024-02-04T12:36:33;8.70;99.90
36586;DHT22;22591;48.314;11.562;2024-02-04T12:39:00;8.70;99.90
36586;DHT22;22591;48.314;11.562;2024-02-04T12:41:27;8.80;99.90
36586;DHT22;22591;48.314;11.562;2024-02-04T12:43:54;8.90;99.90
36586;DHT22;22591;48.314;11.562;2024-02-04T12:46:20;8.90;99.90
36586;DHT22;22591;48.314;11.562;2024-02-04T12:51:29;8.80;99.90
36586;DHT22;22591;48.314;11.562;2024-02-04T12:54:09;8.80;99.90
36586;DHT22;22591;48.314;11.562;2024-02-04T12:56:45;8.80;99.90
36586;DHT22;22591;48.314;11.562;2024-02-04T12:59:11;8.80;99.90
36586;DHT22;22591;48.314;11.562;2024-02-04T13:01:38;8.80;99.90
36586;DHT22;22591;48.314;11.562;2024-02-04T13:04:03;8.90;99.90
36586;DHT22;22591;48.314;11.562;2024-02-04T13:06:30;8.80;99.90
36586;DHT22;22591;48.314;11.562;2024-02-04T13:08:56;8.80;99.90
36586;DHT22;22591;48.314;11.562;2024-02-04T13:11:32;8.80;99.90
36586;DHT22;22591;48.314;11.562;2024-02-04T13:13:58;8.80;99.90
36586;DHT22;22591;48.314;11.562;2024-02-04T13:16:24;8.80;99.90
36586;DHT22;22591;48.314;11.562;2024-02-04T13:18:53;8.70;99.90
36586;DHT22;22591;48.314;11.562;2024-02-04T13:21:19;8.80;99.90
36586;DHT22;22591;48.314;11.562;2024-02-04T13:23:47;8.80;99.90
36586;DHT22;22591;48.314;11.562;2024-02-04T13:26:14;8.70;99.90
36586;DHT22;22591;48.314;11.562;2024-02-04T13:28:45;8.80;99.90
36586;DHT22;22591;48.314;11.562;2024-02-04T13:31:10;8.80;99.90
36586;DHT22;22591;48.314;11.562;2024-02-04T13:33:38;8.80;99.90
36586;DHT22;22591;48.314;11.562;2024-02-04T13:36:05;8.90;99.90
36586;DHT22;22591;48.314;11.562;2024-02-04T13:38:31;8.90;99.90
36586;DHT22;22591;48.314;11.562;2024-02-04T13:41:07;8.90;99.90
36586;DHT22;22591;48.314;11.562;2024-02-04T13:43:33;9.00;99.90
36586;DHT22;22591;48.314;11.562;2024-02-04T13:46:02;9.00;99.90
36586;DHT22;22591;48.314;11.562;2024-02-04T13:48:28;9.00;99.90
36586;DHT22;22591;48.314;11.562;2024-02-04T13:50:53;9.10;99.90
36586;DHT22;22591;48.314;11.562;2024-02-04T13:53:22;9.10;99.90
36586;DHT22;22591;48.314;11.562;2024-02-04T13:55:50;9.10;99.90
36586;DHT22;22591;48.314;11.562;2024-02-04T13:58:16;9.00;99.90
36586;DHT22;22591;48.314;11.562;2024-02-04T14:00:43;9.00;99.90
36586;DHT22;22591;48.314;11.562;2024-02-04T14:03:09;9.10;99.90
36586;DHT22;22591;48.314;11.562;2024-02-04T14:05:34;9.10;99.90
36586;DHT22;22591;48.314;11.562;2024-02-04T14:08:00;9.10;99.90
36586;DHT22;22591;48.314;11.562;2024-02-04T14:10:25;9.20;99.90
36586;DHT22;22591;48.314;11.562;2024-02-04T14:12:51;9.20;99.90
36586;DHT22;22591;48.314;11.562;2024-02-04T14:15:17;9.30;99.90
36586;DHT22;22591;48.314;11.562;2024-02-04T14:17:43;9.30;99.90
36586;DHT22;22591;48.314;11.562;2024-02-04T14:20:09;9.30;99.90
36586;DHT22;22591;48.314;11.562;2024-02-04T14:22:34;9.30;99.90
36586;DHT22;22591;48.314;11.562;2024-02-04T14:25:00;9.40;99.90
36586;DHT22;22591;48.314;11.562;2024-02-04T14:27:26;9.40;99.90
36586;DHT22;22591;48.314;11.562;2024-02-04T14:30:12;9.40;99.90
36586;DHT22;22591;48.314;11.562;2024-02-04T14:32:38;9.30;99.90
36586;DHT22;22591;48.314;11.562;2024-02-04T14:35:04;9.30;99.90
36586;DHT22;22591;48.314;11.562;2024-02-04T14:37:30;9.30;99.90
36586;DHT22;22591;48.314;11.562;2024-02-04T14:39:57;9.30;99.90
36586;DHT22;22591;48.314;11.562;2024-02-04T14:42:25;9.30;99.90
36586;DHT22;22591;48.314;11.562;2024-02-04T14:44:52;9.30;99.90
36586;DHT22;22591;48.314;11.562;2024-02-04T14:47:17;9.30;99.90
36586;DHT22;22591;48.314;11.562;2024-02-04T14:49:43;9.40;99.90
36586;DHT22;22591;48.314;11.562;2024-02-04T14:52:09;9.30;99.90
36586;DHT22;22591;48.314;11.562;2024-02-04T14:54:35;9.30;99.90
36586;DHT22;22591;48.314;11.562;2024-02-04T14:57:00;9.30;99.90
36586;DHT22;22591;48.314;11.562;2024-02-04T14:59:26;9.30;99.90
36586;DHT22;22591;48.314;11.562;2024-02-04T15:01:54;9.30;99.90
36586;DHT22;22591;48.314;11.562;2024-02-04T15:04:20;9.30;99.90
36586;DHT22;22591;48.314;11.562;2024-02-04T15:06:45;9.30;99.90
36586;DHT22;22591;48.314;11.562;2024-02-04T15:09:11;9.30;99.90
36586;DHT22;22591;48.314;11.562;2024-02-04T15:11:37;9.30;99.90
36586;DHT22;22591;48.314;11.562;2024-02-04T15:14:03;9.30;99.90
36586;DHT22;22591;48.314;11.562;2024-02-04T15:16:30;9.30;99.90
36586;DHT22;22591;48.314;11.562;2024-02-04T15:18:55;9.30;99.90
36586;DHT22;22591;48.314;11.562;2024-02-04T15:21:21;9.30;99.90
36586;DHT22;22591;48.314;11.562;2024-02-04T15:23:49;9.30;99.90
36586;DHT22;22591;48.314;11.562;2024-02-04T15:26:15;9.30;99.90
36586;DHT22;22591;48.314;11.562;2024-02-04T15:28:41;9.20;99.90
36586;DHT22;22591;48.314;11.562;2024-02-04T15:31:07;9.30;99.90
36586;DHT22;22591;48.314;11.562;2024-02-04T15:33:34;9.30;99.90
36586;DHT22;22591;48.314;11.562;2024-02-04T15:36:00;9.30;99.90
36586;DHT22;22591;48.314;11.562;2024-02-04T15:38:26;9.30;99.90
36586;DHT22;22591;48.314;11.562;2024-02-04T15:40:53;9.30;99.90
36586;DHT22;22591;48.314;11.562;2024-02-04T15:43:19;9.30;99.90
36586;DHT22;22591;48.314;11.562;2024-02-04T15:45:46;9.30;99.90